sensor_id;sensor_type;location;lat;lon;timestamp;P1;durP1;ratioP1;P2;durP2;ratioP2
1136;SDS011;557;48.466;7.950;2024-03-02T00:00:41;3.23;;;2.90;;
1136;SDS011;557;48.466;7.950;2024-03-02T00:03:08;3.70;;;2.83;;
1136;SDS011;557;48.466;7.950;2024-03-02T00:05:35;3.93;;;2.90;;
1136;SDS011;557;48.466;7.950;2024-03-02T00:08:02;4.00;;;2.97;;
1136;SDS011;557;48.466;7.950;2024-03-02T00:10:32;2.67;;;2.40;;
1136;SDS011;557;48.466;7.950;2024-03-02T00:13:04;3.50;;;2.90;;
1136;SDS011;557;48.466;7.950;2024-03-02T00:15:45;4.50;;;3.10;;
1136;SDS011;557;48.466;7.950;2024-03-02T00:18:13;5.70;;;3.20;;
1136;SDS011;557;48.466;7.950;2024-03-02T00:20:42;4.13;;;3.00;;
1136;SDS011;557;48.466;7.950;2024-03-02T00:23:09;3.43;;;2.50;;
1136;SDS011;557;48.466;7.950;2024-03-02T00:25:41;3.60;;;2.63;;
1136;SDS011;557;48.466;7.950;2024-03-02T00:28:19;3.40;;;2.80;;
1136;SDS011;557;48.466;7.950;2024-03-02T00:33:32;4.27;;;3.17;;
1136;SDS011;557;48.466;7.950;2024-03-02T00:36:00;3.03;;;2.70;;
1136;SDS011;557;48.466;7.950;2024-03-02T00:38:28;3.77;;;2.97;;
1136;SDS011;557;48.466;7.950;2024-03-02T00:40:56;4.33;;;3.40;;
1136;SDS011;557;48.466;7.950;2024-03-02T00:46:27;3.90;;;3.37;;
1136;SDS011;557;48.466;7.950;2024-03-02T00:48:56;3.90;;;3.03;;
1136;SDS011;557;48.466;7.950;2024-03-02T00:51:25;4.30;;;3.10;;
1136;SDS011;557;48.466;7.950;2024-03-02T00:53:53;3.60;;;2.90;;
1136;SDS011;557;48.466;7.950;2024-03-02T00:56:22;5.20;;;3.20;;
1136;SDS011;557;48.466;7.950;2024-03-02T00:58:49;3.50;;;3.20;;
1136;SDS011;557;48.466;7.950;2024-03-02T01:01:17;3.27;;;2.87;;
1136;SDS011;557;48.466;7.950;2024-03-02T01:03:46;3.60;;;2.60;;
1136;SDS011;557;48.466;7.950;2024-03-02T01:06:14;3.90;;;3.00;;
1136;SDS011;557;48.466;7.950;2024-03-02T01:08:41;3.23;;;2.80;;
1136;SDS011;557;48.466;7.950;2024-03-02T01:11:08;3.97;;;3.13;;
1136;SDS011;557;48.466;7.950;2024-03-02T01:13:35;4.37;;;2.60;;
1136;SDS011;557;48.466;7.950;2024-03-02T01:16:02;2.93;;;2.57;;
1136;SDS011;557;48.466;7.950;2024-03-02T01:18:30;4.53;;;3.00;;
1136;SDS011;557;48.466;7.950;2024-03-02T01:20:58;3.40;;;2.40;;
1136;SDS011;557;48.466;7.950;2024-03-02T01:23:26;3.00;;;2.50;;
1136;SDS011;557;48.466;7.950;2024-03-02T01:25:53;3.20;;;2.77;;
1136;SDS011;557;48.466;7.950;2024-03-02T01:28:20;3.30;;;2.50;;
1136;SDS011;557;48.466;7.950;2024-03-02T01:30:47;3.40;;;2.80;;
1136;SDS011;557;48.466;7.950;2024-03-02T01:33:14;3.70;;;2.70;;
1136;SDS011;557;48.466;7.950;2024-03-02T01:35:41;2.57;;;2.37;;
1136;SDS011;557;48.466;7.950;2024-03-02T01:38:09;3.63;;;2.80;;
1136;SDS011;557;48.466;7.950;2024-03-02T01:40:36;4.20;;;3.03;;
1136;SDS011;557;48.466;7.950;2024-03-02T01:43:04;3.37;;;2.70;;
1136;SDS011;557;48.466;7.950;2024-03-02T01:45:31;3.90;;;2.67;;
1136;SDS011;557;48.466;7.950;2024-03-02T01:47:58;2.73;;;2.40;;
1136;SDS011;557;48.466;7.950;2024-03-02T01:50:26;4.03;;;3.10;;
1136;SDS011;557;48.466;7.950;2024-03-02T01:52:55;3.30;;;2.60;;
1136;SDS011;557;48.466;7.950;2024-03-02T01:55:24;3.23;;;2.63;;
1136;SDS011;557;48.466;7.950;2024-03-02T01:57:51;4.30;;;3.00;;
1136;SDS011;557;48.466;7.950;2024-03-02T02:00:19;3.50;;;2.73;;
1136;SDS011;557;48.466;7.950;2024-03-02T02:02:47;2.80;;;2.47;;
1136;SDS011;557;48.466;7.950;2024-03-02T02:05:15;3.40;;;2.77;;
1136;SDS011;557;48.466;7.950;2024-03-02T02:07:42;4.73;;;2.50;;
1136;SDS011;557;48.466;7.950;2024-03-02T02:10:09;3.63;;;3.20;;
1136;SDS011;557;48.466;7.950;2024-03-02T02:12:38;2.47;;;2.27;;
1136;SDS011;557;48.466;7.950;2024-03-02T02:15:21;5.50;;;2.43;;
1136;SDS011;557;48.466;7.950;2024-03-02T02:17:49;3.60;;;2.57;;
1136;SDS011;557;48.466;7.950;2024-03-02T02:20:16;4.03;;;3.17;;
1136;SDS011;557;48.466;7.950;2024-03-02T02:22:57;2.80;;;2.50;;
1136;SDS011;557;48.466;7.950;2024-03-02T02:25:24;2.93;;;2.30;;
1136;SDS011;557;48.466;7.950;2024-03-02T02:27:52;3.10;;;2.80;;
1136;SDS011;557;48.466;7.950;2024-03-02T02:30:19;4.20;;;3.07;;
1136;SDS011;557;48.466;7.950;2024-03-02T02:32:47;3.50;;;2.43;;
1136;SDS011;557;48.466;7.950;2024-03-02T02:35:14;3.47;;;2.87;;
1136;SDS011;557;48.466;7.950;2024-03-02T02:37:41;2.97;;;2.67;;
1136;SDS011;557;48.466;7.950;2024-03-02T02:40:11;3.33;;;2.57;;
1136;SDS011;557;48.466;7.950;2024-03-02T02:42:39;3.00;;;2.50;;
1136;SDS011;557;48.466;7.950;2024-03-02T02:45:06;2.93;;;2.40;;
1136;SDS011;557;48.466;7.950;2024-03-02T02:47:34;3.37;;;2.70;;
1136;SDS011;557;48.466;7.950;2024-03-02T02:50:01;3.33;;;2.70;;
1136;SDS011;557;48.466;7.950;2024-03-02T02:52:32;3.73;;;2.90;;
1136;SDS011;557;48.466;7.950;2024-03-02T02:55:01;3.33;;;2.67;;
1136;SDS011;557;48.466;7.950;2024-03-02T02:57:31;3.20;;;2.73;;
1136;SDS011;557;48.466;7.950;2024-03-02T03:00:01;2.70;;;2.20;;
1136;SDS011;557;48.466;7.950;2024-03-02T03:02:35;2.90;;;2.40;;
1136;SDS011;557;48.466;7.950;2024-03-02T03:05:03;3.30;;;2.57;;
1136;SDS011;557;48.466;7.950;2024-03-02T03:07:31;3.13;;;2.83;;
1136;SDS011;557;48.466;7.950;2024-03-02T03:09:57;3.80;;;2.53;;
1136;SDS011;557;48.466;7.950;2024-03-02T03:12:24;3.07;;;2.77;;
1136;SDS011;557;48.466;7.950;2024-03-02T03:14:53;5.70;;;3.07;;
1136;SDS011;557;48.466;7.950;2024-03-02T03:17:20;2.67;;;2.43;;
1136;SDS011;557;48.466;7.950;2024-03-02T03:19:47;3.80;;;2.93;;
1136;SDS011;557;48.466;7.950;2024-03-02T03:22:15;3.80;;;3.03;;
1136;SDS011;557;48.466;7.950;2024-03-02T03:24:41;3.90;;;2.70;;
1136;SDS011;557;48.466;7.950;2024-03-02T03:27:09;5.60;;;3.27;;
1136;SDS011;557;48.466;7.950;2024-03-02T03:29:36;3.57;;;2.73;;
1136;SDS011;557;48.466;7.950;2024-03-02T03:32:05;4.10;;;2.47;;
1136;SDS011;557;48.466;7.950;2024-03-02T03:34:33;3.77;;;2.80;;
1136;SDS011;557;48.466;7.950;2024-03-02T03:36:59;3.30;;;2.50;;
1136;SDS011;557;48.466;7.950;2024-03-02T03:39:26;4.53;;;3.23;;
1136;SDS011;557;48.466;7.950;2024-03-02T03:41:53;4.07;;;2.70;;
1136;SDS011;557;48.466;7.950;2024-03-02T03:44:20;4.60;;;2.93;;
1136;SDS011;557;48.466;7.950;2024-03-02T03:46:47;3.20;;;2.77;;
1136;SDS011;557;48.466;7.950;2024-03-02T03:49:15;2.73;;;2.20;;
1136;SDS011;557;48.466;7.950;2024-03-02T03:51:42;3.50;;;2.77;;
1136;SDS011;557;48.466;7.950;2024-03-02T03:54:09;3.93;;;3.00;;
1136;SDS011;557;48.466;7.950;2024-03-02T03:56:36;3.33;;;2.60;;
1136;SDS011;557;48.466;7.950;2024-03-02T03:59:03;3.20;;;2.80;;
1136;SDS011;557;48.466;7.950;2024-03-02T04:01:30;3.40;;;2.60;;
1136;SDS011;557;48.466;7.950;2024-03-02T04:03:57;4.03;;;2.63;;
1136;SDS011;557;48.466;7.950;2024-03-02T04:06:26;4.13;;;2.87;;
1136;SDS011;557;48.466;7.950;2024-03-02T04:08:52;3.40;;;2.47;;
1136;SDS011;557;48.466;7.950;2024-03-02T04:11:19;2.50;;;2.30;;
1136;SDS011;557;48.466;7.950;2024-03-02T04:13:46;5.43;;;2.53;;
1136;SDS011;557;48.466;7.950;2024-03-02T04:16:13;3.10;;;2.80;;
1136;SDS011;557;48.466;7.950;2024-03-02T04:18:40;4.07;;;2.97;;
1136;SDS011;557;48.466;7.950;2024-03-02T04:21:07;4.37;;;2.50;;
1136;SDS011;557;48.466;7.950;2024-03-02T04:23:35;5.70;;;2.63;;
1136;SDS011;557;48.466;7.950;2024-03-02T04:26:02;4.30;;;2.90;;
1136;SDS011;557;48.466;7.950;2024-03-02T04:28:32;4.47;;;2.93;;
1136;SDS011;557;48.466;7.950;2024-03-02T04:33:39;5.13;;;3.00;;
1136;SDS011;557;48.466;7.950;2024-03-02T04:36:06;3.27;;;2.43;;
1136;SDS011;557;48.466;7.950;2024-03-02T04:38:36;4.30;;;2.87;;
1136;SDS011;557;48.466;7.950;2024-03-02T04:41:03;2.90;;;2.60;;
1136;SDS011;557;48.466;7.950;2024-03-02T04:43:32;3.10;;;2.50;;
1136;SDS011;557;48.466;7.950;2024-03-02T04:45:59;3.43;;;3.13;;
1136;SDS011;557;48.466;7.950;2024-03-02T04:48:26;5.63;;;2.57;;
1136;SDS011;557;48.466;7.950;2024-03-02T04:50:53;4.03;;;3.00;;
1136;SDS011;557;48.466;7.950;2024-03-02T04:53:20;2.90;;;2.60;;
1136;SDS011;557;48.466;7.950;2024-03-02T04:55:48;3.83;;;2.33;;
1136;SDS011;557;48.466;7.950;2024-03-02T04:58:52;4.60;;;2.70;;
1136;SDS011;557;48.466;7.950;2024-03-02T05:01:19;3.90;;;2.73;;
1136;SDS011;557;48.466;7.950;2024-03-02T05:03:46;4.33;;;3.60;;
1136;SDS011;557;48.466;7.950;2024-03-02T05:06:13;3.10;;;2.67;;
1136;SDS011;557;48.466;7.950;2024-03-02T05:08:40;3.00;;;2.50;;
1136;SDS011;557;48.466;7.950;2024-03-02T05:11:08;3.40;;;2.60;;
1136;SDS011;557;48.466;7.950;2024-03-02T05:13:49;3.57;;;3.20;;
1136;SDS011;557;48.466;7.950;2024-03-02T05:16:15;3.13;;;2.50;;
1136;SDS011;557;48.466;7.950;2024-03-02T05:18:42;2.77;;;2.47;;
1136;SDS011;557;48.466;7.950;2024-03-02T05:21:09;3.50;;;2.97;;
1136;SDS011;557;48.466;7.950;2024-03-02T05:23:36;4.57;;;2.40;;
1136;SDS011;557;48.466;7.950;2024-03-02T05:26:03;2.40;;;2.20;;
1136;SDS011;557;48.466;7.950;2024-03-02T05:28:32;3.10;;;2.73;;
1136;SDS011;557;48.466;7.950;2024-03-02T05:30:59;3.60;;;2.93;;
1136;SDS011;557;48.466;7.950;2024-03-02T05:33:25;3.80;;;2.53;;
1136;SDS011;557;48.466;7.950;2024-03-02T05:35:53;2.70;;;2.50;;
1136;SDS011;557;48.466;7.950;2024-03-02T05:38:20;2.80;;;2.50;;
1136;SDS011;557;48.466;7.950;2024-03-02T05:40:47;3.07;;;2.63;;
1136;SDS011;557;48.466;7.950;2024-03-02T05:43:14;2.57;;;2.37;;
1136;SDS011;557;48.466;7.950;2024-03-02T05:45:42;2.60;;;2.30;;
1136;SDS011;557;48.466;7.950;2024-03-02T05:48:09;3.37;;;2.73;;
1136;SDS011;557;48.466;7.950;2024-03-02T05:50:36;3.17;;;2.73;;
1136;SDS011;557;48.466;7.950;2024-03-02T05:53:03;3.27;;;2.70;;
1136;SDS011;557;48.466;7.950;2024-03-02T05:55:30;3.80;;;2.93;;
1136;SDS011;557;48.466;7.950;2024-03-02T05:57:57;4.00;;;3.10;;
1136;SDS011;557;48.466;7.950;2024-03-02T06:00:40;3.93;;;2.87;;
1136;SDS011;557;48.466;7.950;2024-03-02T06:03:09;4.20;;;2.67;;
1136;SDS011;557;48.466;7.950;2024-03-02T06:05:35;3.43;;;3.07;;
1136;SDS011;557;48.466;7.950;2024-03-02T06:08:02;2.93;;;2.67;;
1136;SDS011;557;48.466;7.950;2024-03-02T06:10:30;3.47;;;2.37;;
1136;SDS011;557;48.466;7.950;2024-03-02T06:12:56;3.53;;;2.30;;
1136;SDS011;557;48.466;7.950;2024-03-02T06:15:24;2.90;;;2.20;;
1136;SDS011;557;48.466;7.950;2024-03-02T06:17:52;5.07;;;2.63;;
1136;SDS011;557;48.466;7.950;2024-03-02T06:20:19;5.03;;;2.97;;
1136;SDS011;557;48.466;7.950;2024-03-02T06:22:46;2.83;;;2.50;;
1136;SDS011;557;48.466;7.950;2024-03-02T06:25:13;3.03;;;2.73;;
1136;SDS011;557;48.466;7.950;2024-03-02T06:27:40;4.17;;;2.70;;
1136;SDS011;557;48.466;7.950;2024-03-02T06:30:07;2.97;;;2.70;;
1136;SDS011;557;48.466;7.950;2024-03-02T06:32:34;2.20;;;2.00;;
1136;SDS011;557;48.466;7.950;2024-03-02T06:35:03;3.10;;;2.80;;
1136;SDS011;557;48.466;7.950;2024-03-02T06:37:33;4.03;;;3.07;;
1136;SDS011;557;48.466;7.950;2024-03-02T06:40:00;3.10;;;2.80;;
1136;SDS011;557;48.466;7.950;2024-03-02T06:42:27;3.40;;;3.10;;
1136;SDS011;557;48.466;7.950;2024-03-02T06:44:58;3.33;;;3.03;;
1136;SDS011;557;48.466;7.950;2024-03-02T06:47:25;3.27;;;2.97;;
1136;SDS011;557;48.466;7.950;2024-03-02T06:49:51;2.80;;;2.53;;
1136;SDS011;557;48.466;7.950;2024-03-02T06:52:20;3.10;;;2.80;;
1136;SDS011;557;48.466;7.950;2024-03-02T06:54:47;3.37;;;2.90;;
1136;SDS011;557;48.466;7.950;2024-03-02T06:57:14;3.13;;;2.90;;
1136;SDS011;557;48.466;7.950;2024-03-02T06:59:42;3.73;;;2.70;;
1136;SDS011;557;48.466;7.950;2024-03-02T07:02:09;3.07;;;2.87;;
1136;SDS011;557;48.466;7.950;2024-03-02T07:04:36;3.43;;;3.13;;
1136;SDS011;557;48.466;7.950;2024-03-02T07:07:03;2.80;;;2.60;;
1136;SDS011;557;48.466;7.950;2024-03-02T07:09:31;3.43;;;2.70;;
1136;SDS011;557;48.466;7.950;2024-03-02T07:11:58;3.23;;;2.93;;
1136;SDS011;557;48.466;7.950;2024-03-02T07:14:25;3.10;;;2.80;;
1136;SDS011;557;48.466;7.950;2024-03-02T07:17:12;3.80;;;3.10;;
1136;SDS011;557;48.466;7.950;2024-03-02T07:19:39;3.13;;;2.90;;
1136;SDS011;557;48.466;7.950;2024-03-02T07:22:06;3.50;;;3.20;;
1136;SDS011;557;48.466;7.950;2024-03-02T07:24:40;3.50;;;3.20;;
1136;SDS011;557;48.466;7.950;2024-03-02T07:27:07;3.60;;;3.27;;
1136;SDS011;557;48.466;7.950;2024-03-02T07:29:34;4.47;;;3.17;;
1136;SDS011;557;48.466;7.950;2024-03-02T07:32:01;4.03;;;3.63;;
1136;SDS011;557;48.466;7.950;2024-03-02T07:34:29;3.30;;;3.10;;
1136;SDS011;557;48.466;7.950;2024-03-02T07:36:55;3.30;;;3.10;;
1136;SDS011;557;48.466;7.950;2024-03-02T07:39:22;4.27;;;3.70;;
1136;SDS011;557;48.466;7.950;2024-03-02T07:41:51;3.40;;;3.10;;
1136;SDS011;557;48.466;7.950;2024-03-02T07:44:18;3.83;;;3.40;;
1136;SDS011;557;48.466;7.950;2024-03-02T07:46:46;3.60;;;3.30;;
1136;SDS011;557;48.466;7.950;2024-03-02T07:49:15;3.90;;;3.60;;
1136;SDS011;557;48.466;7.950;2024-03-02T07:51:44;3.60;;;3.30;;
1136;SDS011;557;48.466;7.950;2024-03-02T07:54:19;3.70;;;3.40;;
1136;SDS011;557;48.466;7.950;2024-03-02T07:56:46;4.23;;;3.20;;
1136;SDS011;557;48.466;7.950;2024-03-02T07:59:15;3.20;;;3.00;;
1136;SDS011;557;48.466;7.950;2024-03-02T08:01:43;3.60;;;3.30;;
1136;SDS011;557;48.466;7.950;2024-03-02T08:04:11;3.67;;;3.40;;
1136;SDS011;557;48.466;7.950;2024-03-02T08:06:38;3.60;;;3.40;;
1136;SDS011;557;48.466;7.950;2024-03-02T08:09:05;4.00;;;3.70;;
1136;SDS011;557;48.466;7.950;2024-03-02T08:11:35;4.00;;;3.70;;
1136;SDS011;557;48.466;7.950;2024-03-02T08:14:02;3.70;;;3.40;;
1136;SDS011;557;48.466;7.950;2024-03-02T08:16:31;4.63;;;4.30;;
1136;SDS011;557;48.466;7.950;2024-03-02T08:18:58;4.40;;;4.10;;
1136;SDS011;557;48.466;7.950;2024-03-02T08:21:25;4.87;;;4.47;;
1136;SDS011;557;48.466;7.950;2024-03-02T08:23:55;4.60;;;4.30;;
1136;SDS011;557;48.466;7.950;2024-03-02T08:26:22;4.80;;;4.40;;
1136;SDS011;557;48.466;7.950;2024-03-02T08:28:49;4.77;;;4.40;;
1136;SDS011;557;48.466;7.950;2024-03-02T08:31:16;4.67;;;4.37;;
1136;SDS011;557;48.466;7.950;2024-03-02T08:33:44;5.23;;;4.93;;
1136;SDS011;557;48.466;7.950;2024-03-02T08:36:11;5.80;;;5.03;;
1136;SDS011;557;48.466;7.950;2024-03-02T08:38:38;5.50;;;5.20;;
1136;SDS011;557;48.466;7.950;2024-03-02T08:41:05;6.00;;;5.60;;
1136;SDS011;557;48.466;7.950;2024-03-02T08:43:34;5.30;;;5.00;;
1136;SDS011;557;48.466;7.950;2024-03-02T08:46:01;5.77;;;5.47;;
1136;SDS011;557;48.466;7.950;2024-03-02T08:48:28;6.17;;;5.67;;
1136;SDS011;557;48.466;7.950;2024-03-02T08:50:56;5.80;;;5.50;;
1136;SDS011;557;48.466;7.950;2024-03-02T08:53:23;6.40;;;6.00;;
1136;SDS011;557;48.466;7.950;2024-03-02T08:55:50;6.53;;;6.03;;
1136;SDS011;557;48.466;7.950;2024-03-02T08:58:17;6.20;;;5.80;;
1136;SDS011;557;48.466;7.950;2024-03-02T09:00:45;6.20;;;5.80;;
1136;SDS011;557;48.466;7.950;2024-03-02T09:03:13;7.03;;;6.33;;
1136;SDS011;557;48.466;7.950;2024-03-02T09:05:41;8.27;;;7.67;;
1136;SDS011;557;48.466;7.950;2024-03-02T09:08:10;8.03;;;7.37;;
1136;SDS011;557;48.466;7.950;2024-03-02T09:10:36;7.77;;;7.17;;
1136;SDS011;557;48.466;7.950;2024-03-02T09:13:05;7.33;;;6.80;;
1136;SDS011;557;48.466;7.950;2024-03-02T09:22:33;7.33;;;6.83;;
1136;SDS011;557;48.466;7.950;2024-03-02T09:25:11;6.83;;;6.43;;
1136;SDS011;557;48.466;7.950;2024-03-02T09:27:38;6.37;;;6.07;;
1136;SDS011;557;48.466;7.950;2024-03-02T09:30:07;7.10;;;6.63;;
1136;SDS011;557;48.466;7.950;2024-03-02T09:35:47;7.50;;;7.10;;
1136;SDS011;557;48.466;7.950;2024-03-02T09:38:14;7.90;;;7.40;;
1136;SDS011;557;48.466;7.950;2024-03-02T09:40:46;7.83;;;7.33;;
1136;SDS011;557;48.466;7.950;2024-03-02T09:43:20;8.10;;;7.60;;
1136;SDS011;557;48.466;7.950;2024-03-02T09:45:48;8.23;;;7.73;;
1136;SDS011;557;48.466;7.950;2024-03-02T09:48:17;8.07;;;7.60;;
1136;SDS011;557;48.466;7.950;2024-03-02T09:50:45;8.70;;;8.10;;
1136;SDS011;557;48.466;7.950;2024-03-02T09:53:13;10.33;;;9.40;;
1136;SDS011;557;48.466;7.950;2024-03-02T09:55:42;8.80;;;8.20;;
1136;SDS011;557;48.466;7.950;2024-03-02T09:58:13;12.07;;;9.90;;
1136;SDS011;557;48.466;7.950;2024-03-02T10:00:40;8.80;;;8.20;;
1136;SDS011;557;48.466;7.950;2024-03-02T10:03:11;8.77;;;8.20;;
1136;SDS011;557;48.466;7.950;2024-03-02T10:05:39;8.83;;;8.33;;
1136;SDS011;557;48.466;7.950;2024-03-02T10:08:07;9.53;;;8.90;;
1136;SDS011;557;48.466;7.950;2024-03-02T10:10:34;9.97;;;9.40;;
1136;SDS011;557;48.466;7.950;2024-03-02T10:13:07;11.50;;;10.60;;
1136;SDS011;557;48.466;7.950;2024-03-02T10:15:35;11.20;;;10.30;;
1136;SDS011;557;48.466;7.950;2024-03-02T10:18:03;10.27;;;9.47;;
1136;SDS011;557;48.466;7.950;2024-03-02T10:20:30;9.90;;;9.40;;
1136;SDS011;557;48.466;7.950;2024-03-02T10:25:41;10.50;;;9.83;;
1136;SDS011;557;48.466;7.950;2024-03-02T10:28:11;10.43;;;9.83;;
1136;SDS011;557;48.466;7.950;2024-03-02T10:30:38;10.00;;;9.53;;
1136;SDS011;557;48.466;7.950;2024-03-02T10:33:05;10.80;;;10.20;;
1136;SDS011;557;48.466;7.950;2024-03-02T10:35:32;10.63;;;10.10;;
1136;SDS011;557;48.466;7.950;2024-03-02T10:38:01;10.40;;;9.90;;
1136;SDS011;557;48.466;7.950;2024-03-02T10:40:31;10.93;;;10.30;;
1136;SDS011;557;48.466;7.950;2024-03-02T10:42:58;11.43;;;10.67;;
1136;SDS011;557;48.466;7.950;2024-03-02T10:45:28;11.97;;;10.80;;
1136;SDS011;557;48.466;7.950;2024-03-02T10:47:56;10.43;;;9.93;;
1136;SDS011;557;48.466;7.950;2024-03-02T10:50:24;11.60;;;10.90;;
1136;SDS011;557;48.466;7.950;2024-03-02T10:52:51;11.43;;;10.83;;
1136;SDS011;557;48.466;7.950;2024-03-02T10:55:18;11.40;;;10.80;;
1136;SDS011;557;48.466;7.950;2024-03-02T10:57:49;10.90;;;10.30;;
1136;SDS011;557;48.466;7.950;2024-03-02T11:00:18;11.00;;;10.50;;
1136;SDS011;557;48.466;7.950;2024-03-02T11:02:51;11.13;;;10.63;;
1136;SDS011;557;48.466;7.950;2024-03-02T11:05:26;11.07;;;10.57;;
1136;SDS011;557;48.466;7.950;2024-03-02T11:07:57;11.70;;;11.10;;
1136;SDS011;557;48.466;7.950;2024-03-02T11:10:29;11.30;;;10.80;;
1136;SDS011;557;48.466;7.950;2024-03-02T11:13:02;10.70;;;10.30;;
1136;SDS011;557;48.466;7.950;2024-03-02T11:15:32;11.23;;;10.70;;
1136;SDS011;557;48.466;7.950;2024-03-02T11:18:04;12.00;;;11.50;;
1136;SDS011;557;48.466;7.950;2024-03-02T11:20:34;11.90;;;11.30;;
1136;SDS011;557;48.466;7.950;2024-03-02T11:23:04;12.00;;;11.40;;
1136;SDS011;557;48.466;7.950;2024-03-02T11:25:32;11.80;;;11.30;;
1136;SDS011;557;48.466;7.950;2024-03-02T11:27:59;11.83;;;11.23;;
1136;SDS011;557;48.466;7.950;2024-03-02T11:30:48;12.20;;;11.60;;
1136;SDS011;557;48.466;7.950;2024-03-02T11:33:26;12.27;;;11.67;;
1136;SDS011;557;48.466;7.950;2024-03-02T11:35:57;12.23;;;11.63;;
1136;SDS011;557;48.466;7.950;2024-03-02T11:38:28;11.70;;;11.20;;
1136;SDS011;557;48.466;7.950;2024-03-02T11:40:56;11.90;;;11.30;;
1136;SDS011;557;48.466;7.950;2024-03-02T11:43:24;11.90;;;11.30;;
1136;SDS011;557;48.466;7.950;2024-03-02T11:45:56;12.13;;;11.53;;
1136;SDS011;557;48.466;7.950;2024-03-02T11:48:23;11.80;;;11.30;;
1136;SDS011;557;48.466;7.950;2024-03-02T11:50:52;12.20;;;11.60;;
1136;SDS011;557;48.466;7.950;2024-03-02T11:53:20;12.83;;;11.90;;
1136;SDS011;557;48.466;7.950;2024-03-02T11:55:47;12.67;;;12.07;;
1136;SDS011;557;48.466;7.950;2024-03-02T11:58:15;13.30;;;12.50;;
1136;SDS011;557;48.466;7.950;2024-03-02T12:00:45;12.57;;;11.90;;
1136;SDS011;557;48.466;7.950;2024-03-02T12:03:12;12.13;;;11.53;;
1136;SDS011;557;48.466;7.950;2024-03-02T12:05:41;12.87;;;12.17;;
1136;SDS011;557;48.466;7.950;2024-03-02T12:08:08;12.60;;;12.00;;
1136;SDS011;557;48.466;7.950;2024-03-02T12:10:37;12.97;;;12.23;;
1136;SDS011;557;48.466;7.950;2024-03-02T12:13:05;12.23;;;11.63;;
1136;SDS011;557;48.466;7.950;2024-03-02T12:15:33;12.57;;;11.77;;
1136;SDS011;557;48.466;7.950;2024-03-02T12:18:02;12.07;;;11.47;;
1136;SDS011;557;48.466;7.950;2024-03-02T12:20:30;12.60;;;12.00;;
1136;SDS011;557;48.466;7.950;2024-03-02T12:23:03;13.70;;;12.90;;
1136;SDS011;557;48.466;7.950;2024-03-02T12:25:31;13.90;;;13.00;;
1136;SDS011;557;48.466;7.950;2024-03-02T12:28:00;13.30;;;12.60;;
1136;SDS011;557;48.466;7.950;2024-03-02T12:30:36;12.87;;;12.27;;
1136;SDS011;557;48.466;7.950;2024-03-02T12:33:03;13.30;;;12.63;;
1136;SDS011;557;48.466;7.950;2024-03-02T12:35:30;12.80;;;12.17;;
1136;SDS011;557;48.466;7.950;2024-03-02T12:37:57;13.53;;;12.83;;
1136;SDS011;557;48.466;7.950;2024-03-02T12:40:24;13.07;;;12.47;;
1136;SDS011;557;48.466;7.950;2024-03-02T12:42:52;14.20;;;13.50;;
1136;SDS011;557;48.466;7.950;2024-03-02T12:45:19;13.00;;;12.50;;
1136;SDS011;557;48.466;7.950;2024-03-02T12:47:51;13.40;;;12.70;;
1136;SDS011;557;48.466;7.950;2024-03-02T12:50:19;12.70;;;12.20;;
1136;SDS011;557;48.466;7.950;2024-03-02T12:52:50;12.70;;;12.20;;
1136;SDS011;557;48.466;7.950;2024-03-02T12:55:19;12.90;;;12.30;;
1136;SDS011;557;48.466;7.950;2024-03-02T12:57:47;12.97;;;12.37;;
1136;SDS011;557;48.466;7.950;2024-03-02T13:00:17;13.20;;;12.60;;
1136;SDS011;557;48.466;7.950;2024-03-02T13:02:45;13.20;;;12.60;;
1136;SDS011;557;48.466;7.950;2024-03-02T13:05:14;13.57;;;12.97;;
1136;SDS011;557;48.466;7.950;2024-03-02T13:07:41;13.50;;;12.83;;
1136;SDS011;557;48.466;7.950;2024-03-02T13:10:07;13.37;;;12.77;;
1136;SDS011;557;48.466;7.950;2024-03-02T13:12:36;13.40;;;12.80;;
1136;SDS011;557;48.466;7.950;2024-03-02T13:15:03;14.10;;;13.20;;
1136;SDS011;557;48.466;7.950;2024-03-02T13:17:31;13.90;;;13.30;;
1136;SDS011;557;48.466;7.950;2024-03-02T13:20:02;13.80;;;13.20;;
1136;SDS011;557;48.466;7.950;2024-03-02T13:22:34;13.97;;;13.37;;
1136;SDS011;557;48.466;7.950;2024-03-02T13:25:02;14.27;;;13.67;;
1136;SDS011;557;48.466;7.950;2024-03-02T13:27:29;14.30;;;13.70;;
1136;SDS011;557;48.466;7.950;2024-03-02T13:29:57;14.40;;;13.80;;
1136;SDS011;557;48.466;7.950;2024-03-02T13:32:24;14.53;;;13.93;;
1136;SDS011;557;48.466;7.950;2024-03-02T13:34:51;14.30;;;13.70;;
1136;SDS011;557;48.466;7.950;2024-03-02T13:37:19;14.97;;;14.30;;
1136;SDS011;557;48.466;7.950;2024-03-02T13:39:48;14.37;;;13.77;;
1136;SDS011;557;48.466;7.950;2024-03-02T13:42:15;14.40;;;13.80;;
1136;SDS011;557;48.466;7.950;2024-03-02T13:44:43;14.80;;;14.10;;
1136;SDS011;557;48.466;7.950;2024-03-02T13:47:13;14.00;;;13.50;;
1136;SDS011;557;48.466;7.950;2024-03-02T13:52:11;14.00;;;13.40;;
1136;SDS011;557;48.466;7.950;2024-03-02T13:54:41;14.07;;;13.47;;
1136;SDS011;557;48.466;7.950;2024-03-02T13:57:10;14.10;;;13.50;;
1136;SDS011;557;48.466;7.950;2024-03-02T13:59:38;14.17;;;13.57;;
1136;SDS011;557;48.466;7.950;2024-03-02T14:02:06;13.70;;;13.20;;
1136;SDS011;557;48.466;7.950;2024-03-02T14:04:34;14.07;;;13.47;;
1136;SDS011;557;48.466;7.950;2024-03-02T14:07:01;14.97;;;14.27;;
1136;SDS011;557;48.466;7.950;2024-03-02T14:09:29;14.10;;;13.50;;
1136;SDS011;557;48.466;7.950;2024-03-02T14:12:13;14.17;;;13.57;;
1136;SDS011;557;48.466;7.950;2024-03-02T14:14:46;14.10;;;13.50;;
1136;SDS011;557;48.466;7.950;2024-03-02T14:17:13;14.23;;;13.63;;
1136;SDS011;557;48.466;7.950;2024-03-02T14:19:40;14.20;;;13.60;;
1136;SDS011;557;48.466;7.950;2024-03-02T14:22:07;14.53;;;13.93;;
1136;SDS011;557;48.466;7.950;2024-03-02T14:24:34;13.80;;;13.20;;
1136;SDS011;557;48.466;7.950;2024-03-02T14:27:01;13.87;;;13.27;;
1136;SDS011;557;48.466;7.950;2024-03-02T14:29:39;14.20;;;13.60;;
1136;SDS011;557;48.466;7.950;2024-03-02T14:32:06;14.13;;;13.53;;
1136;SDS011;557;48.466;7.950;2024-03-02T14:34:39;14.10;;;13.50;;
1136;SDS011;557;48.466;7.950;2024-03-02T14:37:07;14.30;;;13.50;;
1136;SDS011;557;48.466;7.950;2024-03-02T14:42:07;14.20;;;13.50;;
1136;SDS011;557;48.466;7.950;2024-03-02T14:44:34;13.60;;;13.00;;
1136;SDS011;557;48.466;7.950;2024-03-02T14:47:02;14.07;;;13.37;;
1136;SDS011;557;48.466;7.950;2024-03-02T14:49:31;13.73;;;13.10;;
1136;SDS011;557;48.466;7.950;2024-03-02T14:51:59;14.50;;;13.73;;
1136;SDS011;557;48.466;7.950;2024-03-02T14:54:27;14.37;;;13.67;;
1136;SDS011;557;48.466;7.950;2024-03-02T14:56:54;14.50;;;13.80;;
1136;SDS011;557;48.466;7.950;2024-03-02T14:59:22;14.90;;;14.17;;
1136;SDS011;557;48.466;7.950;2024-03-02T15:01:48;14.07;;;13.37;;
1136;SDS011;557;48.466;7.950;2024-03-02T15:04:17;14.10;;;13.40;;
1136;SDS011;557;48.466;7.950;2024-03-02T15:06:45;13.60;;;12.93;;
1136;SDS011;557;48.466;7.950;2024-03-02T15:09:12;14.47;;;13.77;;
1136;SDS011;557;48.466;7.950;2024-03-02T15:11:39;15.20;;;14.40;;
1136;SDS011;557;48.466;7.950;2024-03-02T15:14:07;14.23;;;13.43;;
1136;SDS011;557;48.466;7.950;2024-03-02T15:16:34;13.03;;;12.33;;
1136;SDS011;557;48.466;7.950;2024-03-02T15:19:01;17.60;;;16.50;;
1136;SDS011;557;48.466;7.950;2024-03-02T15:21:29;14.67;;;13.87;;
1136;SDS011;557;48.466;7.950;2024-03-02T15:23:56;14.07;;;13.20;;
1136;SDS011;557;48.466;7.950;2024-03-02T15:26:23;16.50;;;15.50;;
1136;SDS011;557;48.466;7.950;2024-03-02T15:28:50;16.40;;;15.30;;
1136;SDS011;557;48.466;7.950;2024-03-02T15:31:18;18.13;;;16.90;;
1136;SDS011;557;48.466;7.950;2024-03-02T15:33:45;18.63;;;17.03;;
1136;SDS011;557;48.466;7.950;2024-03-02T15:36:12;18.50;;;17.10;;
1136;SDS011;557;48.466;7.950;2024-03-02T15:38:41;15.83;;;14.73;;
1136;SDS011;557;48.466;7.950;2024-03-02T15:41:09;16.67;;;15.47;;
1136;SDS011;557;48.466;7.950;2024-03-02T15:43:35;16.80;;;15.60;;
1136;SDS011;557;48.466;7.950;2024-03-02T15:46:04;19.23;;;17.53;;
1136;SDS011;557;48.466;7.950;2024-03-02T15:48:31;19.13;;;17.50;;
1136;SDS011;557;48.466;7.950;2024-03-02T15:50:58;15.23;;;14.33;;
1136;SDS011;557;48.466;7.950;2024-03-02T15:53:25;14.00;;;13.30;;